createdAt,value
2022-09-12T06:59:57.485Z,4.97
2022-09-12T07:02:25.824Z,5.57
2022-09-12T07:04:52.869Z,7.30
2022-09-12T07:07:19.836Z,6.70
2022-09-12T07:09:46.602Z,5.22
2022-09-12T07:12:13.464Z,4.78
2022-09-12T09:55:20.983Z,1.45
2022-09-12T10:00:27.040Z,1.20
2022-09-12T10:03:14.964Z,1.15
2022-09-12T10:05:50.396Z,1.30
2022-09-12T10:08:21.343Z,1.95
2022-09-12T10:11:13.082Z,1.55
2022-09-12T10:13:50.171Z,1.10
2022-09-12T10:16:19.456Z,0.98
2022-09-12T10:18:46.812Z,1.58
2022-09-12T10:21:38.621Z,1.50
2022-09-12T10:24:24.216Z,1.17
2022-09-12T10:26:57.263Z,1.83
2022-09-12T10:29:32.271Z,1.50
2022-09-12T10:32:03.301Z,1.20
2022-09-12T10:34:35.591Z,1.52
2022-09-12T10:37:06.688Z,1.33
2022-09-12T10:39:36.003Z,1.50
2022-09-12T10:42:03.588Z,0.70
2022-09-12T10:44:33.323Z,1.63
2022-09-12T10:47:19.280Z,0.90
2022-09-12T10:49:46.111Z,1.15
2022-09-12T10:52:25.693Z,0.90
2022-09-12T10:54:53.660Z,0.80
2022-09-12T10:58:22.716Z,1.70
2022-09-12T11:00:58.804Z,1.58
2022-09-12T11:04:11.039Z,1.50
2022-09-12T11:06:52.030Z,1.50
2022-09-12T11:09:32.950Z,1.55
2022-09-12T11:12:28.888Z,1.70
2022-09-12T11:15:33.116Z,1.45
2022-09-12T11:18:27.556Z,1.63
2022-09-12T11:21:03.368Z,1.80
2022-09-12T11:23:42.113Z,1.33
2022-09-12T11:26:24.292Z,1.38
2022-09-12T11:29:15.820Z,1.65
2022-09-12T11:32:17.763Z,1.80
2022-09-12T11:35:02.989Z,1.67
2022-09-12T11:37:29.720Z,1.55
2022-09-12T11:40:00.468Z,1.42
2022-09-12T11:42:35.091Z,1.70
2022-09-12T11:45:15.818Z,2.10
2022-09-12T11:47:48.089Z,1.77
2022-09-12T11:50:30.108Z,1.98
2022-09-12T11:53:11.063Z,1.60
2022-09-12T11:56:00.766Z,2.42
2022-09-12T11:58:31.553Z,3.03
2022-09-12T12:01:10.006Z,2.08
2022-09-12T12:03:47.339Z,1.45
2022-09-12T12:06:19.178Z,1.95
2022-09-12T12:08:50.654Z,2.60
2022-09-12T12:11:41.878Z,2.25
2022-09-12T12:14:22.771Z,2.40
2022-09-12T12:16:50.249Z,2.53
2022-09-12T12:19:17.307Z,2.65
2022-09-12T12:21:50.852Z,2.45
2022-09-12T12:24:26.419Z,1.70
2022-09-12T12:27:00.947Z,2.53
2022-09-12T12:29:44.060Z,2.15
2022-09-12T12:32:11.490Z,1.65
2022-09-12T12:34:43.647Z,2.40
2022-09-12T12:37:19.769Z,2.58
2022-09-12T12:39:52.703Z,3.17
2022-09-12T12:42:37.467Z,2.92
2022-09-12T12:45:27.064Z,1.60
2022-09-12T12:48:15.120Z,2.05
2022-09-12T12:50:46.004Z,2.13
2022-09-12T12:53:21.315Z,2.10
2022-09-12T12:55:52.136Z,2.38
2022-09-12T12:58:40.631Z,2.42
2022-09-12T13:01:19.471Z,1.88
2022-09-12T13:03:54.281Z,2.10
2022-09-12T13:06:35.085Z,2.03
2022-09-12T13:09:22.900Z,1.20
2022-09-12T13:12:04.855Z,2.03
2022-09-12T13:14:43.487Z,1.90
2022-09-12T13:17:28.203Z,1.98
2022-09-12T13:20:30.109Z,1.92
2022-09-12T13:22:57.868Z,2.03
2022-09-12T13:25:31.803Z,1.42
2022-09-12T13:28:19.905Z,1.70
2022-09-12T13:31:03.220Z,1.50
2022-09-12T13:33:45.340Z,1.67
2022-09-12T13:36:14.936Z,1.67
2022-09-12T13:39:10.461Z,2.28
2022-09-12T13:42:07.471Z,1.60
2022-09-12T13:44:52.865Z,2.00
2022-09-12T13:47:28.476Z,1.83
2022-09-12T13:49:56.231Z,1.65
2022-09-12T13:52:33.368Z,1.50
2022-09-12T13:55:02.071Z,1.73
2022-09-12T13:57:33.759Z,1.60
2022-09-12T14:00:04.900Z,2.00
2022-09-12T14:02:36.777Z,2.05
2022-09-12T14:05:13.253Z,1.45
2022-09-12T14:07:52.490Z,1.60
2022-09-12T14:10:28.440Z,1.20
2022-09-12T14:12:57.265Z,1.83
2022-09-12T14:15:27.750Z,2.05
2022-09-12T14:18:05.727Z,1.58
2022-09-12T14:20:36.882Z,1.85
2022-09-12T14:23:27.854Z,1.55
2022-09-12T14:25:56.398Z,1.65
2022-09-12T14:28:23.944Z,2.00
2022-09-12T14:31:06.682Z,1.65
2022-09-12T14:33:47.978Z,2.05
2022-09-12T14:36:43.416Z,1.60
2022-09-12T14:39:39.903Z,2.38
2022-09-12T14:42:17.883Z,2.00
2022-09-12T14:45:13.948Z,2.00
2022-09-12T14:47:44.376Z,1.80
2022-09-12T14:50:26.139Z,1.65
2022-09-12T14:53:20.201Z,2.00
2022-09-12T14:55:58.530Z,1.50
2022-09-12T14:58:28.224Z,2.17
2022-09-12T15:01:08.450Z,1.83
2022-09-12T15:03:51.910Z,1.95
2022-09-12T15:06:25.525Z,1.85
2022-09-12T15:08:54.731Z,1.83
2022-09-12T15:11:23.256Z,1.45
2022-09-12T15:13:50.241Z,1.65
2022-09-12T15:16:17.115Z,1.95
2022-09-12T15:18:44.067Z,1.67
2022-09-12T15:21:16.665Z,2.30
2022-09-12T15:23:49.056Z,1.75
2022-09-12T15:26:18.996Z,1.83
2022-09-12T15:28:46.195Z,2.20
2022-09-12T15:31:27.616Z,1.88
2022-09-12T15:33:56.082Z,1.77
2022-09-12T15:36:27.905Z,2.25
2022-09-12T15:38:55.340Z,2.25
2022-09-12T15:41:34.506Z,2.17
2022-09-12T15:44:04.056Z,2.03
2022-09-12T15:46:30.927Z,2.15
2022-09-12T15:48:57.795Z,2.00
2022-09-12T15:51:24.691Z,2.08
2022-09-12T15:53:52.540Z,1.83
2022-09-12T15:56:21.300Z,1.70
2022-09-12T15:58:58.220Z,2.20
2022-09-12T16:01:27.502Z,1.95
2022-09-12T16:03:54.375Z,2.13
2022-09-12T16:06:22.206Z,1.90
2022-09-12T16:08:49.037Z,1.98
2022-09-12T16:11:20.922Z,1.60
2022-09-12T16:13:48.220Z,1.90
2022-09-12T16:16:15.120Z,2.03
2022-09-12T16:18:42.317Z,2.80
2022-09-12T16:21:14.043Z,6.65
2022-09-12T16:23:45.875Z,3.65
2022-09-12T16:26:13.260Z,2.63
2022-09-12T16:28:40.657Z,3.42
2022-09-12T16:31:10.859Z,2.92
2022-09-12T16:33:38.302Z,2.35
2022-09-12T16:36:09.555Z,2.08
2022-09-12T16:38:57.356Z,2.47
2022-09-12T16:41:25.453Z,2.08
2022-09-12T16:43:53.016Z,1.67
2022-09-12T16:46:22.731Z,1.80
2022-09-12T16:48:52.891Z,1.42
2022-09-12T16:51:28.361Z,1.95
2022-09-12T16:53:55.865Z,1.67
2022-09-12T16:56:23.710Z,2.20
2022-09-12T16:58:50.995Z,1.83
2022-09-12T17:01:23.678Z,2.28
2022-09-12T17:03:58.685Z,1.77
2022-09-12T17:06:26.363Z,1.45
2022-09-12T17:08:55.002Z,2.10
2022-09-12T17:11:24.661Z,1.80
2022-09-12T17:14:09.953Z,1.83
2022-09-12T17:16:45.908Z,1.75
2022-09-12T17:19:21.344Z,2.17
2022-09-12T17:21:50.019Z,2.13
2022-09-12T17:24:18.400Z,2.35
2022-09-12T17:26:46.472Z,1.85
2022-09-12T17:29:14.117Z,1.83
2022-09-12T17:31:41.817Z,1.52
2022-09-12T17:34:09.085Z,1.95
2022-09-12T17:36:35.932Z,1.85
2022-09-12T17:39:04.240Z,2.58
2022-09-12T17:41:31.956Z,1.88
2022-09-12T17:44:00.633Z,2.10
2022-09-12T17:46:35.945Z,2.08
2022-09-12T17:49:05.453Z,2.25
2022-09-12T17:51:32.369Z,2.00
2022-09-12T17:54:01.714Z,1.98
2022-09-12T17:56:30.755Z,1.98
2022-09-12T17:58:59.216Z,2.30
2022-09-12T18:01:47.095Z,2.17
2022-09-12T18:04:14.656Z,1.98
2022-09-12T18:06:47.767Z,2.97
2022-09-12T18:09:19.931Z,1.88
2022-09-12T18:11:48.149Z,1.42
2022-09-12T18:14:18.149Z,1.80
2022-09-12T18:16:46.209Z,2.00
2022-09-12T18:19:13.824Z,2.53
2022-09-12T18:21:41.056Z,1.95
2022-09-12T18:24:09.407Z,1.70
2022-09-12T18:26:36.332Z,2.05
2022-09-12T18:29:06.459Z,2.05
2022-09-12T18:31:33.323Z,1.88
2022-09-12T18:34:01.013Z,2.03
2022-09-12T18:36:29.181Z,2.85
2022-09-12T18:38:58.599Z,1.65
2022-09-12T18:41:26.025Z,2.45
2022-09-12T18:43:57.604Z,2.28
2022-09-12T18:46:25.012Z,2.40
2022-09-12T18:48:52.039Z,2.70
2022-09-12T18:51:21.819Z,2.30
2022-09-12T18:53:56.532Z,2.47
2022-09-12T18:56:28.213Z,2.33
2022-09-12T18:58:56.540Z,1.93
2022-09-12T19:01:25.715Z,1.73
2022-09-12T19:03:53.620Z,2.15
2022-09-12T19:06:26.048Z,2.30
2022-09-12T19:11:20.868Z,2.65
2022-09-12T19:13:49.940Z,2.40
2022-09-12T19:16:22.179Z,2.70
2022-09-12T19:18:49.911Z,2.65
2022-09-12T19:21:24.808Z,2.22
2022-09-12T19:23:52.990Z,2.30
2022-09-12T19:26:21.026Z,1.80
2022-09-12T19:28:48.440Z,2.05
2022-09-12T19:31:19.059Z,1.90
2022-09-12T19:33:47.141Z,2.22
2022-09-12T19:36:40.812Z,2.10
2022-09-12T19:39:05.152Z,1.48
2022-09-12T19:41:32.495Z,1.63
2022-09-12T19:43:59.484Z,2.10
2022-09-12T19:46:27.262Z,2.17
2022-09-12T19:48:54.475Z,3.53
2022-09-12T19:51:25.334Z,3.33
2022-09-12T19:53:52.539Z,3.22
2022-09-12T19:56:19.804Z,2.58
2022-09-12T19:58:52.123Z,2.38
2022-09-12T20:01:25.172Z,2.80
2022-09-12T20:03:54.827Z,2.20
2022-09-12T20:06:21.879Z,2.47
2022-09-12T20:08:51.389Z,2.55
2022-09-12T20:11:20.795Z,2.50
2022-09-12T20:13:47.941Z,2.65
2022-09-12T20:16:21.821Z,2.35
2022-09-12T20:18:53.693Z,2.20
2022-09-12T20:21:23.423Z,2.75
2022-09-12T20:23:50.157Z,2.40
2022-09-12T20:26:16.921Z,2.13
2022-09-12T20:28:43.741Z,2.05
2022-09-12T20:31:13.110Z,2.15
2022-09-12T20:33:40.125Z,2.17
2022-09-12T20:36:12.763Z,1.73
2022-09-12T20:38:40.737Z,1.60
2022-09-12T20:41:10.000Z,1.67
2022-09-12T20:43:38.681Z,1.67
2022-09-12T20:46:07.591Z,1.63
2022-09-12T20:48:34.507Z,1.80
2022-09-12T20:51:03.054Z,1.60
2022-09-12T20:53:34.686Z,1.52
2022-09-12T20:56:03.152Z,1.17
